sensor_id;sensor_type;location;lat;lon;timestamp;temperature;humidity
23079;DHT22;11707;50.830;4.364;2023-06-26T00:01:04;22.80;1.00
23079;DHT22;11707;50.830;4.364;2023-06-26T00:03:33;22.80;1.00
23079;DHT22;11707;50.830;4.364;2023-06-26T00:05:58;22.60;1.00
23079;DHT22;11707;50.830;4.364;2023-06-26T00:08:26;22.60;1.00
23079;DHT22;11707;50.830;4.364;2023-06-26T00:10:52;22.50;1.00
23079;DHT22;11707;50.830;4.364;2023-06-26T00:13:19;22.40;1.00
23079;DHT22;11707;50.830;4.364;2023-06-26T00:15:45;22.30;1.00
23079;DHT22;11707;50.830;4.364;2023-06-26T00:18:13;22.10;1.00
23079;DHT22;11707;50.830;4.364;2023-06-26T00:20:38;22.00;1.00
23079;DHT22;11707;50.830;4.364;2023-06-26T00:23:04;22.00;1.00
23079;DHT22;11707;50.830;4.364;2023-06-26T00:25:35;21.90;1.00
23079;DHT22;11707;50.830;4.364;2023-06-26T00:28:01;21.70;1.00
23079;DHT22;11707;50.830;4.364;2023-06-26T00:30:29;21.70;1.00
23079;DHT22;11707;50.830;4.364;2023-06-26T00:32:55;21.70;1.00
23079;DHT22;11707;50.830;4.364;2023-06-26T00:35:20;21.60;1.00
23079;DHT22;11707;50.830;4.364;2023-06-26T00:37:48;21.60;1.00
23079;DHT22;11707;50.830;4.364;2023-06-26T00:40:14;21.40;1.00
23079;DHT22;11707;50.830;4.364;2023-06-26T00:42:40;21.30;1.00
23079;DHT22;11707;50.830;4.364;2023-06-26T00:45:08;21.30;1.00
23079;DHT22;11707;50.830;4.364;2023-06-26T00:47:34;21.20;1.00
23079;DHT22;11707;50.830;4.364;2023-06-26T00:49:59;21.20;1.00
23079;DHT22;11707;50.830;4.364;2023-06-26T00:52:25;21.30;1.00
23079;DHT22;11707;50.830;4.364;2023-06-26T00:54:52;21.20;1.00
23079;DHT22;11707;50.830;4.364;2023-06-26T00:57:18;21.10;1.00
23079;DHT22;11707;50.830;4.364;2023-06-26T00:59:44;21.00;1.00
23079;DHT22;11707;50.830;4.364;2023-06-26T01:02:10;21.00;1.00
23079;DHT22;11707;50.830;4.364;2023-06-26T01:04:36;20.90;1.00
23079;DHT22;11707;50.830;4.364;2023-06-26T01:07:02;20.80;1.00
23079;DHT22;11707;50.830;4.364;2023-06-26T01:09:30;20.60;1.00
23079;DHT22;11707;50.830;4.364;2023-06-26T01:11:56;20.60;1.00
23079;DHT22;11707;50.830;4.364;2023-06-26T01:14:24;20.70;1.00
23079;DHT22;11707;50.830;4.364;2023-06-26T01:16:50;20.70;1.00
23079;DHT22;11707;50.830;4.364;2023-06-26T01:19:24;20.60;1.00
23079;DHT22;11707;50.830;4.364;2023-06-26T01:24:33;20.60;1.00
23079;DHT22;11707;50.830;4.364;2023-06-26T01:27:05;20.60;1.00
23079;DHT22;11707;50.830;4.364;2023-06-26T01:29:31;20.60;1.00
23079;DHT22;11707;50.830;4.364;2023-06-26T01:31:58;20.50;1.00
23079;DHT22;11707;50.830;4.364;2023-06-26T01:34:24;20.60;1.00
23079;DHT22;11707;50.830;4.364;2023-06-26T01:36:50;20.50;1.00
23079;DHT22;11707;50.830;4.364;2023-06-26T01:39:20;20.40;3.50
23079;DHT22;11707;50.830;4.364;2023-06-26T01:41:46;20.40;8.20
23079;DHT22;11707;50.830;4.364;2023-06-26T01:44:28;20.30;16.40
23079;DHT22;11707;50.830;4.364;2023-06-26T01:52:41;20.20;22.50
23079;DHT22;11707;50.830;4.364;2023-06-26T01:57:45;20.10;26.40
23079;DHT22;11707;50.830;4.364;2023-06-26T02:00:15;20.10;26.90
23079;DHT22;11707;50.830;4.364;2023-06-26T02:02:43;20.10;30.00
23079;DHT22;11707;50.830;4.364;2023-06-26T02:05:09;20.10;33.10
23079;DHT22;11707;50.830;4.364;2023-06-26T02:07:35;19.90;41.20
23079;DHT22;11707;50.830;4.364;2023-06-26T02:10:03;19.80;47.70
23079;DHT22;11707;50.830;4.364;2023-06-26T02:12:32;19.80;51.60
23079;DHT22;11707;50.830;4.364;2023-06-26T02:14:57;19.80;52.40
23079;DHT22;11707;50.830;4.364;2023-06-26T02:17:25;19.80;52.80
23079;DHT22;11707;50.830;4.364;2023-06-26T02:19:51;19.80;56.70
23079;DHT22;11707;50.830;4.364;2023-06-26T02:22:17;19.70;59.00
23079;DHT22;11707;50.830;4.364;2023-06-26T02:24:45;19.70;60.20
23079;DHT22;11707;50.830;4.364;2023-06-26T02:27:11;19.70;59.90
23079;DHT22;11707;50.830;4.364;2023-06-26T02:29:37;19.80;59.20
23079;DHT22;11707;50.830;4.364;2023-06-26T02:32:03;19.70;61.50
23079;DHT22;11707;50.830;4.364;2023-06-26T02:34:28;19.60;67.30
23079;DHT22;11707;50.830;4.364;2023-06-26T02:36:55;19.60;70.70
23079;DHT22;11707;50.830;4.364;2023-06-26T02:39:22;19.50;76.20
23079;DHT22;11707;50.830;4.364;2023-06-26T02:41:50;19.50;77.20
23079;DHT22;11707;50.830;4.364;2023-06-26T02:44:16;19.50;77.30
23079;DHT22;11707;50.830;4.364;2023-06-26T02:46:41;19.50;78.90
23079;DHT22;11707;50.830;4.364;2023-06-26T02:49:09;19.50;81.00
23079;DHT22;11707;50.830;4.364;2023-06-26T02:51:35;19.50;82.90
23079;DHT22;11707;50.830;4.364;2023-06-26T02:54:01;19.40;86.40
23079;DHT22;11707;50.830;4.364;2023-06-26T02:56:27;19.40;86.20
23079;DHT22;11707;50.830;4.364;2023-06-26T02:58:57;19.30;89.80
23079;DHT22;11707;50.830;4.364;2023-06-26T03:01:23;19.30;91.60
23079;DHT22;11707;50.830;4.364;2023-06-26T03:03:49;19.20;93.10
23079;DHT22;11707;50.830;4.364;2023-06-26T03:06:15;19.10;94.70
23079;DHT22;11707;50.830;4.364;2023-06-26T03:08:41;19.10;95.90
23079;DHT22;11707;50.830;4.364;2023-06-26T03:11:10;19.00;97.30
23079;DHT22;11707;50.830;4.364;2023-06-26T03:13:36;19.00;97.50
23079;DHT22;11707;50.830;4.364;2023-06-26T03:16:02;19.00;97.80
23079;DHT22;11707;50.830;4.364;2023-06-26T03:18:28;19.00;98.10
23079;DHT22;11707;50.830;4.364;2023-06-26T03:20:55;19.00;98.70
23079;DHT22;11707;50.830;4.364;2023-06-26T03:23:22;18.90;99.50
23079;DHT22;11707;50.830;4.364;2023-06-26T03:25:49;18.80;99.90
23079;DHT22;11707;50.830;4.364;2023-06-26T03:28:16;18.80;99.90
23079;DHT22;11707;50.830;4.364;2023-06-26T03:30:42;18.70;99.90
23079;DHT22;11707;50.830;4.364;2023-06-26T03:33:08;18.70;99.90
23079;DHT22;11707;50.830;4.364;2023-06-26T03:35:34;18.60;99.90
23079;DHT22;11707;50.830;4.364;2023-06-26T03:38:00;18.60;99.90
23079;DHT22;11707;50.830;4.364;2023-06-26T03:40:26;18.60;99.90
23079;DHT22;11707;50.830;4.364;2023-06-26T03:42:52;18.60;99.90
23079;DHT22;11707;50.830;4.364;2023-06-26T03:45:18;18.60;99.90
23079;DHT22;11707;50.830;4.364;2023-06-26T03:47:44;18.50;99.90
23079;DHT22;11707;50.830;4.364;2023-06-26T03:50:12;18.50;99.90
23079;DHT22;11707;50.830;4.364;2023-06-26T03:52:38;18.50;99.90
23079;DHT22;11707;50.830;4.364;2023-06-26T03:55:04;18.50;99.90
23079;DHT22;11707;50.830;4.364;2023-06-26T03:57:30;18.50;99.90
23079;DHT22;11707;50.830;4.364;2023-06-26T03:59:56;18.50;99.90
23079;DHT22;11707;50.830;4.364;2023-06-26T04:02:24;18.50;99.90
23079;DHT22;11707;50.830;4.364;2023-06-26T04:04:49;18.50;99.90
23079;DHT22;11707;50.830;4.364;2023-06-26T04:07:17;18.50;99.90
23079;DHT22;11707;50.830;4.364;2023-06-26T04:09:43;18.50;99.90
23079;DHT22;11707;50.830;4.364;2023-06-26T04:12:09;18.50;99.90
23079;DHT22;11707;50.830;4.364;2023-06-26T04:14:34;18.50;99.90
23079;DHT22;11707;50.830;4.364;2023-06-26T04:17:00;18.50;99.90
23079;DHT22;11707;50.830;4.364;2023-06-26T04:19:29;18.40;99.90
23079;DHT22;11707;50.830;4.364;2023-06-26T04:21:54;18.40;99.90
23079;DHT22;11707;50.830;4.364;2023-06-26T04:24:20;18.30;99.90
23079;DHT22;11707;50.830;4.364;2023-06-26T04:26:51;18.40;99.90
23079;DHT22;11707;50.830;4.364;2023-06-26T04:29:16;18.40;99.90
23079;DHT22;11707;50.830;4.364;2023-06-26T04:31:42;18.50;99.90
23079;DHT22;11707;50.830;4.364;2023-06-26T04:34:14;18.40;99.10
23079;DHT22;11707;50.830;4.364;2023-06-26T04:36:39;18.30;99.50
23079;DHT22;11707;50.830;4.364;2023-06-26T04:39:11;18.40;97.80
23079;DHT22;11707;50.830;4.364;2023-06-26T04:41:37;18.40;97.50
23079;DHT22;11707;50.830;4.364;2023-06-26T04:44:03;18.40;97.50
23079;DHT22;11707;50.830;4.364;2023-06-26T04:46:29;18.30;97.80
23079;DHT22;11707;50.830;4.364;2023-06-26T04:48:54;18.30;98.00
23079;DHT22;11707;50.830;4.364;2023-06-26T04:51:24;18.20;98.50
23079;DHT22;11707;50.830;4.364;2023-06-26T04:53:50;18.20;98.30
23079;DHT22;11707;50.830;4.364;2023-06-26T04:56:15;18.10;97.60
23079;DHT22;11707;50.830;4.364;2023-06-26T04:58:41;18.20;97.60
23079;DHT22;11707;50.830;4.364;2023-06-26T05:01:06;18.30;96.90
23079;DHT22;11707;50.830;4.364;2023-06-26T05:03:33;18.20;95.60
23079;DHT22;11707;50.830;4.364;2023-06-26T05:06:00;18.30;94.10
23079;DHT22;11707;50.830;4.364;2023-06-26T05:08:28;18.20;94.60
23079;DHT22;11707;50.830;4.364;2023-06-26T05:10:54;18.20;95.20
23079;DHT22;11707;50.830;4.364;2023-06-26T05:13:23;18.30;93.50
23079;DHT22;11707;50.830;4.364;2023-06-26T05:15:49;18.30;92.70
23079;DHT22;11707;50.830;4.364;2023-06-26T05:18:17;18.40;91.60
23079;DHT22;11707;50.830;4.364;2023-06-26T05:20:46;18.40;89.30
23079;DHT22;11707;50.830;4.364;2023-06-26T05:23:12;18.30;89.60
23079;DHT22;11707;50.830;4.364;2023-06-26T05:25:38;18.10;90.60
23079;DHT22;11707;50.830;4.364;2023-06-26T05:28:04;18.10;87.50
23079;DHT22;11707;50.830;4.364;2023-06-26T05:30:35;18.10;89.40
23079;DHT22;11707;50.830;4.364;2023-06-26T05:33:02;18.10;87.10
23079;DHT22;11707;50.830;4.364;2023-06-26T05:35:29;18.20;84.80
23079;DHT22;11707;50.830;4.364;2023-06-26T05:37:56;18.20;77.50
23079;DHT22;11707;50.830;4.364;2023-06-26T05:40:22;18.10;76.50
23079;DHT22;11707;50.830;4.364;2023-06-26T05:42:50;18.10;74.10
23079;DHT22;11707;50.830;4.364;2023-06-26T05:45:16;18.20;71.60
23079;DHT22;11707;50.830;4.364;2023-06-26T05:47:42;18.10;70.30
23079;DHT22;11707;50.830;4.364;2023-06-26T05:50:11;18.10;74.10
23079;DHT22;11707;50.830;4.364;2023-06-26T05:52:37;18.20;66.00
23079;DHT22;11707;50.830;4.364;2023-06-26T05:55:04;18.30;58.50
23079;DHT22;11707;50.830;4.364;2023-06-26T05:57:30;18.30;56.80
23079;DHT22;11707;50.830;4.364;2023-06-26T05:59:56;18.20;56.40
23079;DHT22;11707;50.830;4.364;2023-06-26T06:02:22;18.30;53.50
23079;DHT22;11707;50.830;4.364;2023-06-26T06:04:51;18.40;52.40
23079;DHT22;11707;50.830;4.364;2023-06-26T06:07:19;18.50;37.40
23079;DHT22;11707;50.830;4.364;2023-06-26T06:09:45;18.50;42.30
23079;DHT22;11707;50.830;4.364;2023-06-26T06:12:10;18.50;40.10
23079;DHT22;11707;50.830;4.364;2023-06-26T06:14:36;18.60;38.40
23079;DHT22;11707;50.830;4.364;2023-06-26T06:17:02;18.60;26.20
23079;DHT22;11707;50.830;4.364;2023-06-26T06:19:28;18.60;26.30
23079;DHT22;11707;50.830;4.364;2023-06-26T06:21:59;18.40;33.20
23079;DHT22;11707;50.830;4.364;2023-06-26T06:24:24;18.40;33.50
23079;DHT22;11707;50.830;4.364;2023-06-26T06:26:52;18.40;33.70
23079;DHT22;11707;50.830;4.364;2023-06-26T06:29:18;18.50;29.30
23079;DHT22;11707;50.830;4.364;2023-06-26T06:31:45;18.50;24.50
23079;DHT22;11707;50.830;4.364;2023-06-26T06:34:10;18.50;25.50
23079;DHT22;11707;50.830;4.364;2023-06-26T06:36:37;18.60;21.50
23079;DHT22;11707;50.830;4.364;2023-06-26T06:39:02;18.60;23.40
23079;DHT22;11707;50.830;4.364;2023-06-26T06:41:31;18.80;13.20
23079;DHT22;11707;50.830;4.364;2023-06-26T06:43:57;18.80;13.20
23079;DHT22;11707;50.830;4.364;2023-06-26T06:46:25;18.90;6.60
23079;DHT22;11707;50.830;4.364;2023-06-26T06:48:54;18.80;4.80
23079;DHT22;11707;50.830;4.364;2023-06-26T06:51:23;18.80;5.50
23079;DHT22;11707;50.830;4.364;2023-06-26T06:53:49;19.00;1.00
23079;DHT22;11707;50.830;4.364;2023-06-26T06:56:14;19.10;1.00
23079;DHT22;11707;50.830;4.364;2023-06-26T06:58:42;18.90;1.00
23079;DHT22;11707;50.830;4.364;2023-06-26T07:01:09;19.10;1.00
23079;DHT22;11707;50.830;4.364;2023-06-26T07:03:35;19.00;1.00
23079;DHT22;11707;50.830;4.364;2023-06-26T07:06:03;19.00;1.00
23079;DHT22;11707;50.830;4.364;2023-06-26T07:08:32;19.10;1.00
23079;DHT22;11707;50.830;4.364;2023-06-26T07:10:58;19.10;1.00
23079;DHT22;11707;50.830;4.364;2023-06-26T07:13:24;19.10;1.00
23079;DHT22;11707;50.830;4.364;2023-06-26T07:15:50;19.20;1.00
23079;DHT22;11707;50.830;4.364;2023-06-26T07:18:16;19.20;1.00
23079;DHT22;11707;50.830;4.364;2023-06-26T07:20:41;19.30;1.00
23079;DHT22;11707;50.830;4.364;2023-06-26T07:23:07;19.40;1.00
23079;DHT22;11707;50.830;4.364;2023-06-26T07:25:33;19.40;1.00
23079;DHT22;11707;50.830;4.364;2023-06-26T07:27:59;19.20;1.00
23079;DHT22;11707;50.830;4.364;2023-06-26T07:30:25;19.20;1.00
23079;DHT22;11707;50.830;4.364;2023-06-26T07:32:51;19.40;1.00
23079;DHT22;11707;50.830;4.364;2023-06-26T07:35:17;19.70;1.00
23079;DHT22;11707;50.830;4.364;2023-06-26T07:37:42;19.60;1.00
23079;DHT22;11707;50.830;4.364;2023-06-26T07:40:09;19.70;1.00
23079;DHT22;11707;50.830;4.364;2023-06-26T07:42:35;19.90;1.00
23079;DHT22;11707;50.830;4.364;2023-06-26T07:45:00;20.00;1.00
23079;DHT22;11707;50.830;4.364;2023-06-26T07:47:26;20.00;1.00
23079;DHT22;11707;50.830;4.364;2023-06-26T07:49:52;19.80;1.00
23079;DHT22;11707;50.830;4.364;2023-06-26T07:52:19;19.70;1.00
23079;DHT22;11707;50.830;4.364;2023-06-26T07:54:45;19.90;1.00
23079;DHT22;11707;50.830;4.364;2023-06-26T07:57:11;19.80;1.00
23079;DHT22;11707;50.830;4.364;2023-06-26T07:59:40;19.90;1.00
23079;DHT22;11707;50.830;4.364;2023-06-26T08:02:06;19.90;1.00
23079;DHT22;11707;50.830;4.364;2023-06-26T08:04:34;19.70;1.00
23079;DHT22;11707;50.830;4.364;2023-06-26T08:07:00;19.70;1.00
23079;DHT22;11707;50.830;4.364;2023-06-26T08:09:30;19.90;1.00
23079;DHT22;11707;50.830;4.364;2023-06-26T08:11:56;19.80;1.00
23079;DHT22;11707;50.830;4.364;2023-06-26T08:14:24;20.00;99.90
23079;DHT22;11707;50.830;4.364;2023-06-26T08:16:51;19.90;1.00
23079;DHT22;11707;50.830;4.364;2023-06-26T08:19:17;20.00;1.00
23079;DHT22;11707;50.830;4.364;2023-06-26T08:21:44;20.10;1.00
23079;DHT22;11707;50.830;4.364;2023-06-26T08:24:13;20.20;99.90
23079;DHT22;11707;50.830;4.364;2023-06-26T08:26:39;20.30;99.90
23079;DHT22;11707;50.830;4.364;2023-06-26T08:29:05;20.50;99.90
23079;DHT22;11707;50.830;4.364;2023-06-26T08:31:37;20.70;99.90
23079;DHT22;11707;50.830;4.364;2023-06-26T08:34:03;21.00;99.90
23079;DHT22;11707;50.830;4.364;2023-06-26T08:36:29;20.80;99.90
23079;DHT22;11707;50.830;4.364;2023-06-26T08:38:55;20.70;99.90
23079;DHT22;11707;50.830;4.364;2023-06-26T08:41:21;20.70;99.90
23079;DHT22;11707;50.830;4.364;2023-06-26T08:43:47;20.70;99.90
23079;DHT22;11707;50.830;4.364;2023-06-26T08:46:14;20.70;99.90
23079;DHT22;11707;50.830;4.364;2023-06-26T08:48:45;20.60;99.90
23079;DHT22;11707;50.830;4.364;2023-06-26T08:51:13;20.50;99.90
23079;DHT22;11707;50.830;4.364;2023-06-26T08:56:25;20.80;1.00
23079;DHT22;11707;50.830;4.364;2023-06-26T08:58:53;20.80;1.00
23079;DHT22;11707;50.830;4.364;2023-06-26T09:01:20;20.90;99.90
23079;DHT22;11707;50.830;4.364;2023-06-26T09:03:48;20.90;99.90
23079;DHT22;11707;50.830;4.364;2023-06-26T09:06:17;21.10;99.90
23079;DHT22;11707;50.830;4.364;2023-06-26T09:08:46;21.10;99.90
23079;DHT22;11707;50.830;4.364;2023-06-26T09:11:11;21.10;99.90
23079;DHT22;11707;50.830;4.364;2023-06-26T09:13:37;21.20;99.90
23079;DHT22;11707;50.830;4.364;2023-06-26T09:16:07;21.20;93.20
23079;DHT22;11707;50.830;4.364;2023-06-26T09:18:36;21.40;99.90
23079;DHT22;11707;50.830;4.364;2023-06-26T09:21:09;21.50;99.90
23079;DHT22;11707;50.830;4.364;2023-06-26T09:23:35;21.60;61.70
23079;DHT22;11707;50.830;4.364;2023-06-26T09:26:05;21.70;1.00
23079;DHT22;11707;50.830;4.364;2023-06-26T09:28:32;21.70;99.90
23079;DHT22;11707;50.830;4.364;2023-06-26T09:31:07;21.30;69.10
23079;DHT22;11707;50.830;4.364;2023-06-26T09:33:37;21.20;1.00
23079;DHT22;11707;50.830;4.364;2023-06-26T09:36:19;21.40;1.00
23079;DHT22;11707;50.830;4.364;2023-06-26T09:38:45;21.50;1.00
23079;DHT22;11707;50.830;4.364;2023-06-26T09:41:11;21.50;92.30
23079;DHT22;11707;50.830;4.364;2023-06-26T09:43:46;21.50;99.90
23079;DHT22;11707;50.830;4.364;2023-06-26T09:46:16;21.60;99.90
23079;DHT22;11707;50.830;4.364;2023-06-26T09:48:42;21.40;74.20
23079;DHT22;11707;50.830;4.364;2023-06-26T09:51:10;21.50;99.90
23079;DHT22;11707;50.830;4.364;2023-06-26T09:53:36;21.50;1.00
23079;DHT22;11707;50.830;4.364;2023-06-26T09:56:15;21.60;99.90
23079;DHT22;11707;50.830;4.364;2023-06-26T09:58:47;21.70;99.90
23079;DHT22;11707;50.830;4.364;2023-06-26T10:01:14;21.70;99.90
23079;DHT22;11707;50.830;4.364;2023-06-26T10:03:39;21.60;99.90
23079;DHT22;11707;50.830;4.364;2023-06-26T10:06:09;21.70;99.90
23079;DHT22;11707;50.830;4.364;2023-06-26T10:08:38;22.10;99.90
23079;DHT22;11707;50.830;4.364;2023-06-26T10:11:04;22.20;48.60
23079;DHT22;11707;50.830;4.364;2023-06-26T10:13:37;21.80;99.90
23079;DHT22;11707;50.830;4.364;2023-06-26T10:16:10;21.90;99.90
23079;DHT22;11707;50.830;4.364;2023-06-26T10:18:38;21.90;99.90
23079;DHT22;11707;50.830;4.364;2023-06-26T10:21:05;22.10;99.90
23079;DHT22;11707;50.830;4.364;2023-06-26T10:23:39;22.30;94.80
23079;DHT22;11707;50.830;4.364;2023-06-26T10:26:07;22.50;1.00
23079;DHT22;11707;50.830;4.364;2023-06-26T10:28:39;22.40;1.00
23079;DHT22;11707;50.830;4.364;2023-06-26T10:31:07;22.40;99.90
23079;DHT22;11707;50.830;4.364;2023-06-26T10:33:34;22.30;99.90
23079;DHT22;11707;50.830;4.364;2023-06-26T10:36:20;22.10;99.90
23079;DHT22;11707;50.830;4.364;2023-06-26T10:39:03;22.10;99.90
23079;DHT22;11707;50.830;4.364;2023-06-26T10:41:36;22.00;99.90
23079;DHT22;11707;50.830;4.364;2023-06-26T10:44:10;21.80;99.90
23079;DHT22;11707;50.830;4.364;2023-06-26T10:46:58;21.70;99.90
23079;DHT22;11707;50.830;4.364;2023-06-26T10:49:30;21.70;99.90
23079;DHT22;11707;50.830;4.364;2023-06-26T10:51:55;21.80;99.90
23079;DHT22;11707;50.830;4.364;2023-06-26T10:54:29;22.10;99.90
23079;DHT22;11707;50.830;4.364;2023-06-26T10:56:58;22.10;99.90
23079;DHT22;11707;50.830;4.364;2023-06-26T10:59:26;22.20;99.90
23079;DHT22;11707;50.830;4.364;2023-06-26T11:02:04;22.30;99.90
23079;DHT22;11707;50.830;4.364;2023-06-26T11:07:23;22.30;99.90
23079;DHT22;11707;50.830;4.364;2023-06-26T11:10:11;22.30;99.90
23079;DHT22;11707;50.830;4.364;2023-06-26T11:12:41;22.30;99.90
23079;DHT22;11707;50.830;4.364;2023-06-26T11:15:17;22.40;99.90
23079;DHT22;11707;50.830;4.364;2023-06-26T11:17:46;22.40;99.90
23079;DHT22;11707;50.830;4.364;2023-06-26T11:20:14;22.40;99.90
23079;DHT22;11707;50.830;4.364;2023-06-26T11:22:43;22.60;99.90
23079;DHT22;11707;50.830;4.364;2023-06-26T11:25:11;22.70;99.90
23079;DHT22;11707;50.830;4.364;2023-06-26T11:27:44;22.50;99.90
23079;DHT22;11707;50.830;4.364;2023-06-26T11:30:11;22.50;99.90
23079;DHT22;11707;50.830;4.364;2023-06-26T11:32:37;22.50;99.90
23079;DHT22;11707;50.830;4.364;2023-06-26T11:35:04;22.50;1.00
23079;DHT22;11707;50.830;4.364;2023-06-26T11:37:31;22.40;99.90
23079;DHT22;11707;50.830;4.364;2023-06-26T11:39:57;22.50;3.80
23079;DHT22;11707;50.830;4.364;2023-06-26T11:42:23;22.60;1.00
23079;DHT22;11707;50.830;4.364;2023-06-26T11:44:51;22.70;1.00
23079;DHT22;11707;50.830;4.364;2023-06-26T11:47:20;22.60;99.90
23079;DHT22;11707;50.830;4.364;2023-06-26T11:49:48;22.40;99.90
23079;DHT22;11707;50.830;4.364;2023-06-26T11:52:14;22.20;99.90
23079;DHT22;11707;50.830;4.364;2023-06-26T11:54:41;22.20;99.90
23079;DHT22;11707;50.830;4.364;2023-06-26T11:57:07;22.20;99.90
23079;DHT22;11707;50.830;4.364;2023-06-26T12:02:00;22.40;99.90
23079;DHT22;11707;50.830;4.364;2023-06-26T12:04:26;22.40;99.90
23079;DHT22;11707;50.830;4.364;2023-06-26T12:06:53;22.60;1.00
23079;DHT22;11707;50.830;4.364;2023-06-26T12:09:26;22.70;99.90
23079;DHT22;11707;50.830;4.364;2023-06-26T12:11:55;22.70;99.90
23079;DHT22;11707;50.830;4.364;2023-06-26T12:14:23;22.60;99.90
23079;DHT22;11707;50.830;4.364;2023-06-26T12:16:51;22.70;95.30
23079;DHT22;11707;50.830;4.364;2023-06-26T12:19:17;22.60;1.00
23079;DHT22;11707;50.830;4.364;2023-06-26T12:21:49;22.70;1.00
23079;DHT22;11707;50.830;4.364;2023-06-26T12:24:20;22.80;1.00
23079;DHT22;11707;50.830;4.364;2023-06-26T12:26:54;23.00;1.00
23079;DHT22;11707;50.830;4.364;2023-06-26T12:29:29;22.90;1.00
23079;DHT22;11707;50.830;4.364;2023-06-26T12:32:02;22.80;1.00
23079;DHT22;11707;50.830;4.364;2023-06-26T12:34:33;22.60;1.00
23079;DHT22;11707;50.830;4.364;2023-06-26T12:37:09;22.40;1.00
23079;DHT22;11707;50.830;4.364;2023-06-26T12:39:55;22.50;1.00
23079;DHT22;11707;50.830;4.364;2023-06-26T12:42:28;22.60;1.00
23079;DHT22;11707;50.830;4.364;2023-06-26T12:44:58;22.90;1.00
23079;DHT22;11707;50.830;4.364;2023-06-26T12:47:28;23.20;1.00
23079;DHT22;11707;50.830;4.364;2023-06-26T12:49:56;23.50;1.00
23079;DHT22;11707;50.830;4.364;2023-06-26T12:52:22;23.50;1.00
23079;DHT22;11707;50.830;4.364;2023-06-26T12:54:55;23.50;1.00
23079;DHT22;11707;50.830;4.364;2023-06-26T12:57:21;23.40;99.90
23079;DHT22;11707;50.830;4.364;2023-06-26T12:59:47;23.60;99.90
23079;DHT22;11707;50.830;4.364;2023-06-26T13:02:12;24.50;99.90
23079;DHT22;11707;50.830;4.364;2023-06-26T13:04:38;25.10;99.90
23079;DHT22;11707;50.830;4.364;2023-06-26T13:07:10;25.40;99.90
23079;DHT22;11707;50.830;4.364;2023-06-26T13:09:38;25.60;99.90
23079;DHT22;11707;50.830;4.364;2023-06-26T13:12:05;25.00;99.90
23079;DHT22;11707;50.830;4.364;2023-06-26T13:14:32;24.40;99.90
23079;DHT22;11707;50.830;4.364;2023-06-26T13:16:58;23.80;99.90
23079;DHT22;11707;50.830;4.364;2023-06-26T13:19:24;23.60;99.90
23079;DHT22;11707;50.830;4.364;2023-06-26T13:21:49;23.50;99.90
23079;DHT22;11707;50.830;4.364;2023-06-26T13:24:17;23.30;99.90
23079;DHT22;11707;50.830;4.364;2023-06-26T13:26:46;23.30;1.00
23079;DHT22;11707;50.830;4.364;2023-06-26T13:29:11;24.00;99.90
23079;DHT22;11707;50.830;4.364;2023-06-26T13:31:39;24.50;99.90
23079;DHT22;11707;50.830;4.364;2023-06-26T13:34:05;25.30;99.90
23079;DHT22;11707;50.830;4.364;2023-06-26T13:36:31;26.10;99.90
23079;DHT22;11707;50.830;4.364;2023-06-26T13:38:59;25.30;99.90
23079;DHT22;11707;50.830;4.364;2023-06-26T13:41:25;24.50;99.90
23079;DHT22;11707;50.830;4.364;2023-06-26T13:43:53;24.10;99.90
23079;DHT22;11707;50.830;4.364;2023-06-26T13:46:19;24.70;99.90
23079;DHT22;11707;50.830;4.364;2023-06-26T13:48:48;25.40;99.90
23079;DHT22;11707;50.830;4.364;2023-06-26T13:51:13;25.70;99.90
23079;DHT22;11707;50.830;4.364;2023-06-26T13:53:39;26.00;99.90
23079;DHT22;11707;50.830;4.364;2023-06-26T13:56:05;26.30;99.90
23079;DHT22;11707;50.830;4.364;2023-06-26T13:58:31;27.00;99.90
23079;DHT22;11707;50.830;4.364;2023-06-26T14:00:58;27.20;93.80
23079;DHT22;11707;50.830;4.364;2023-06-26T14:03:24;27.70;48.50
23079;DHT22;11707;50.830;4.364;2023-06-26T14:05:51;27.70;1.00
23079;DHT22;11707;50.830;4.364;2023-06-26T14:08:17;27.40;1.00
23079;DHT22;11707;50.830;4.364;2023-06-26T14:10:42;26.80;1.00
23079;DHT22;11707;50.830;4.364;2023-06-26T14:13:10;25.80;1.00
23079;DHT22;11707;50.830;4.364;2023-06-26T14:15:40;26.00;1.00
23079;DHT22;11707;50.830;4.364;2023-06-26T14:18:06;26.10;1.00
23079;DHT22;11707;50.830;4.364;2023-06-26T14:20:33;25.80;1.00
23079;DHT22;11707;50.830;4.364;2023-06-26T14:22:59;25.30;1.00
23079;DHT22;11707;50.830;4.364;2023-06-26T14:25:25;24.80;1.00
23079;DHT22;11707;50.830;4.364;2023-06-26T14:27:56;24.70;1.00
23079;DHT22;11707;50.830;4.364;2023-06-26T14:30:24;24.60;1.00
23079;DHT22;11707;50.830;4.364;2023-06-26T14:32:50;24.50;1.00
23079;DHT22;11707;50.830;4.364;2023-06-26T14:35:16;24.70;1.00
23079;DHT22;11707;50.830;4.364;2023-06-26T14:37:42;24.80;1.00
23079;DHT22;11707;50.830;4.364;2023-06-26T14:40:09;25.00;1.00
23079;DHT22;11707;50.830;4.364;2023-06-26T14:42:35;25.70;1.00
23079;DHT22;11707;50.830;4.364;2023-06-26T14:45:04;25.80;1.00
23079;DHT22;11707;50.830;4.364;2023-06-26T14:47:29;25.10;1.00
23079;DHT22;11707;50.830;4.364;2023-06-26T14:49:55;24.90;1.00
23079;DHT22;11707;50.830;4.364;2023-06-26T14:52:23;24.70;1.00
23079;DHT22;11707;50.830;4.364;2023-06-26T14:54:49;24.60;1.00
23079;DHT22;11707;50.830;4.364;2023-06-26T14:57:14;24.30;1.00
23079;DHT22;11707;50.830;4.364;2023-06-26T14:59:40;23.90;1.00
23079;DHT22;11707;50.830;4.364;2023-06-26T15:02:06;23.60;1.00
23079;DHT22;11707;50.830;4.364;2023-06-26T15:04:34;23.30;18.80
23079;DHT22;11707;50.830;4.364;2023-06-26T15:07:00;23.00;76.80
23079;DHT22;11707;50.830;4.364;2023-06-26T15:09:26;23.00;99.90
23079;DHT22;11707;50.830;4.364;2023-06-26T15:11:51;23.20;99.90
23079;DHT22;11707;50.830;4.364;2023-06-26T15:14:17;23.10;99.90
23079;DHT22;11707;50.830;4.364;2023-06-26T15:16:43;23.30;99.90
23079;DHT22;11707;50.830;4.364;2023-06-26T15:19:08;23.60;99.90
23079;DHT22;11707;50.830;4.364;2023-06-26T15:21:34;23.30;99.90
23079;DHT22;11707;50.830;4.364;2023-06-26T15:24:00;23.20;99.90
23079;DHT22;11707;50.830;4.364;2023-06-26T15:26:25;23.10;99.90
23079;DHT22;11707;50.830;4.364;2023-06-26T15:28:53;23.40;99.90
23079;DHT22;11707;50.830;4.364;2023-06-26T15:31:20;23.50;99.90
23079;DHT22;11707;50.830;4.364;2023-06-26T15:33:45;23.60;99.90
23079;DHT22;11707;50.830;4.364;2023-06-26T15:36:11;23.60;99.90
23079;DHT22;11707;50.830;4.364;2023-06-26T15:38:37;23.40;99.90
23079;DHT22;11707;50.830;4.364;2023-06-26T15:41:05;23.40;99.90
23079;DHT22;11707;50.830;4.364;2023-06-26T15:43:32;23.10;1.00
23079;DHT22;11707;50.830;4.364;2023-06-26T15:46:01;22.90;1.00
23079;DHT22;11707;50.830;4.364;2023-06-26T15:48:28;23.00;21.40
23079;DHT22;11707;50.830;4.364;2023-06-26T15:50:56;22.90;35.50
23079;DHT22;11707;50.830;4.364;2023-06-26T15:53:37;23.00;4.00
23079;DHT22;11707;50.830;4.364;2023-06-26T15:56:09;22.90;1.00
23079;DHT22;11707;50.830;4.364;2023-06-26T15:58:35;23.00;1.00